Time;durP1;ratioP1;P1;durP2;ratioP2;P2;SDS_P1;SDS_P2;PMS_P1;PMS_P2;Temp;Humidity;BMP_temperature;BMP_pressure;BME280_temperature;BME280_humidity;BME280_pressure;Samples;Min_cycle;Max_cycle;Signal;HPM_P1;HPM_P2
2021/06/01 00:00:05;;;;;;;3.95;3.58;;;;;;;14.08;54.61;101577.16;691675;28;12124;-66
2021/06/01 00:00:27;;;;;;;4.10;3.70;;;;;;;14.09;54.41;101576.97;689890;28;70584;-66
2021/06/01 00:00:48;;;;;;;4.32;3.92;;;;;;;14.09;54.34;101584.25;690374;28;44356;-64
2021/06/01 00:01:09;;;;;;;3.75;3.45;;;;;;;14.08;54.28;101579.88;691298;28;23774;-66
2021/06/01 00:01:32;;;;;;;4.50;3.75;;;;;;;14.08;54.55;101577.16;690955;28;23534;-66
2021/06/01 00:01:53;;;;;;;4.53;4.05;;;;;;;14.08;54.63;101574.44;690773;28;43281;-66
2021/06/01 00:02:14;;;;;;;4.32;3.85;;;;;;;14.06;54.24;101570.00;690941;28;41897;-66
2021/06/01 00:02:35;;;;;;;4.28;3.88;;;;;;;14.06;54.53;101580.88;692234;28;941;-66
2021/06/01 00:02:56;;;;;;;3.60;3.30;;;;;;;14.05;54.05;101578.34;690956;28;22401;-66
2021/06/01 00:03:18;;;;;;;4.00;3.60;;;;;;;14.03;54.11;101566.81;691513;28;20886;-66
2021/06/01 00:03:39;;;;;;;4.03;3.63;;;;;;;14.02;54.21;101575.97;691629;28;24157;-66
2021/06/01 00:04:01;;;;;;;4.28;3.60;;;;;;;14.01;54.65;101574.28;690482;28;45320;-66
2021/06/01 00:04:22;;;;;;;5.30;3.95;;;;;;;14.01;54.29;101571.56;691332;28;23391;-66
2021/06/01 00:04:43;;;;;;;4.30;3.75;;;;;;;14.00;54.69;101570.72;691138;28;23533;-66
2021/06/01 00:05:07;;;;;;;4.97;4.10;;;;;;;13.99;54.41;101570.91;690379;28;45240;-66
2021/06/01 00:05:28;;;;;;;4.88;3.97;;;;;;;13.99;54.75;101571.75;689652;28;68383;-67
2021/06/01 00:05:49;;;;;;;5.38;3.67;;;;;;;13.98;54.41;101570.06;691553;28;22430;-66
2021/06/01 00:06:10;;;;;;;5.90;3.90;;;;;;;14.00;54.69;101568.00;691271;28;22531;-66
2021/06/01 00:06:33;;;;;;;4.43;3.83;;;;;;;14.02;54.51;101575.97;690155;28;45080;-66
2021/06/01 00:06:54;;;;;;;5.43;4.00;;;;;;;14.01;54.40;101571.56;689837;28;43896;-67
2021/06/01 00:07:15;;;;;;;4.05;3.60;;;;;;;13.99;54.59;101570.91;691529;28;23426;-66
2021/06/01 00:07:37;;;;;;;5.20;3.70;;;;;;;13.98;54.62;101577.34;691222;28;22416;-66
2021/06/01 00:07:58;;;;;;;5.47;3.70;;;;;;;13.98;54.30;101572.78;690319;28;46350;-66
2021/06/01 00:08:19;;;;;;;4.13;3.72;;;;;;;13.97;54.67;101562.94;690109;28;20639;-66
2021/06/01 00:08:40;;;;;;;4.10;3.70;;;;;;;13.97;54.80;101573.81;690035;28;23367;-66
2021/06/01 00:09:04;;;;;;;5.25;3.90;;;;;;;13.97;54.89;101570.25;689212;28;46603;-66
2021/06/01 00:09:25;;;;;;;5.50;3.70;;;;;;;13.96;54.76;101568.56;689149;28;67057;-67
2021/06/01 00:09:46;;;;;;;4.78;3.80;;;;;;;13.95;54.84;101566.84;691730;28;4447;-66
2021/06/01 00:10:08;;;;;;;4.88;3.88;;;;;;;13.95;55.17;101573.16;691258;28;23595;-66
2021/06/01 00:10:30;;;;;;;3.85;3.53;;;;;;;13.95;55.29;101572.28;690461;28;46349;-66
2021/06/01 00:10:51;;;;;;;4.22;3.75;;;;;;;13.94;55.35;101566.00;690770;28;45106;-66
2021/06/01 00:11:13;;;;;;;5.32;4.07;;;;;;;13.94;55.08;101568.72;691126;28;20804;-66
2021/06/01 00:11:34;;;;;;;4.88;3.80;;;;;;;13.95;55.36;101575.00;690550;28;44430;-66
2021/06/01 00:11:55;;;;;;;4.97;3.60;;;;;;;13.94;55.03;101565.19;690061;28;22461;-66
2021/06/01 00:12:17;;;;;;;4.37;3.40;;;;;;;13.96;55.03;101563.94;690188;28;47397;-66
2021/06/01 00:12:38;;;;;;;5.47;3.67;;;;;;;13.97;55.24;101570.25;690407;28;46379;-66
2021/06/01 00:12:59;;;;;;;4.47;4.07;;;;;;;13.97;55.00;101567.53;690444;28;23518;-67
2021/06/01 00:13:20;;;;;;;4.28;3.88;;;;;;;13.98;55.42;101563.78;689618;28;1350;-66
2021/06/01 00:13:42;;;;;;;4.40;3.72;;;;;;;13.97;55.35;101568.38;688268;28;23487;-66
2021/06/01 00:14:05;;;;;;;4.05;3.65;;;;;;;13.99;55.25;101566.31;687711;28;46328;-66
2021/06/01 00:14:27;;;;;;;6.35;3.55;;;;;;;14.00;54.99;101567.19;689709;28;67479;-66
2021/06/01 00:14:48;;;;;;;5.90;3.47;;;;;;;14.00;55.25;101561.75;689894;28;44140;-66
2021/06/01 00:15:10;;;;;;;4.25;3.83;;;;;;;14.00;54.97;101559.03;690112;28;23436;-66
2021/06/01 00:15:32;;;;;;;4.55;3.90;;;;;;;14.01;54.78;101560.69;690047;28;44362;-66
2021/06/01 00:15:53;;;;;;;6.15;4.13;;;;;;;14.01;55.19;101563.41;690835;28;40289;-66
2021/06/01 00:16:15;;;;;;;4.88;3.95;;;;;;;14.01;55.06;101564.28;691659;28;13317;-66
2021/06/01 00:16:37;;;;;;;4.85;3.88;;;;;;;14.01;55.00;101561.56;690914;28;22405;-66
2021/06/01 00:16:58;;;;;;;4.40;3.95;;;;;;;14.01;54.97;101561.56;690145;28;56499;-66
2021/06/01 00:17:19;;;;;;;4.60;4.13;;;;;;;14.01;54.86;101564.28;690019;28;23540;-66
2021/06/01 00:17:40;;;;;;;4.78;3.80;;;;;;;14.01;55.14;101561.56;690067;28;23428;-66
2021/06/01 00:18:02;;;;;;;4.03;3.72;;;;;;;14.02;54.93;101560.53;690138;28;24353;-66
2021/06/01 00:18:23;;;;;;;4.93;3.88;;;;;;;14.03;54.78;101567.66;690564;28;46083;-66
2021/06/01 00:18:45;;;;;;;5.10;3.80;;;;;;;14.04;55.07;101560.34;691381;28;22362;-66
2021/06/01 00:19:07;;;;;;;6.55;3.95;;;;;;;14.06;54.96;101563.75;691367;28;24540;-66
2021/06/01 00:19:28;;;;;;;5.60;3.90;;;;;;;14.05;54.55;101562.88;689031;28;67491;-66
2021/06/01 00:19:50;;;;;;;5.93;3.90;;;;;;;14.04;54.73;101561.22;691152;28;22370;-66
2021/06/01 00:20:11;;;;;;;4.85;4.10;;;;;;;14.04;54.47;101561.22;690700;28;15754;-66
2021/06/01 00:20:32;;;;;;;5.75;4.18;;;;;;;14.04;54.71;101561.22;689242;28;45271;-66
2021/06/01 00:20:54;;;;;;;6.28;4.00;;;;;;;14.05;54.40;101559.31;690073;28;21562;-66
2021/06/01 00:21:15;;;;;;;5.70;4.40;;;;;;;14.04;54.50;101558.50;689199;28;45309;-66
2021/06/01 00:21:37;;;;;;;4.75;4.00;;;;;;;14.04;54.47;101563.94;690247;28;36842;-66
2021/06/01 00:21:59;;;;;;;4.53;3.95;;;;;;;14.05;54.22;101556.63;691507;28;15564;-66
2021/06/01 00:22:20;;;;;;;5.78;4.13;;;;;;;14.05;54.52;101554.72;691873;28;10464;-66
2021/06/01 00:22:49;;;;;;;4.55;4.15;;;;;;;14.05;54.54;101564.75;690089;28;61156;-66
2021/06/01 00:23:10;;;;;;;4.47;3.83;;;;;;;14.05;54.25;101560.16;690077;28;35301;-66
2021/06/01 00:23:33;;;;;;;4.15;3.75;;;;;;;14.05;54.31;101568.31;691729;28;1178;-66
2021/06/01 00:23:59;;;;;;;5.60;4.45;;;;;;;14.05;54.86;101564.75;690142;28;61500;-66
2021/06/01 00:24:22;;;;;;;5.13;4.03;;;;;;;14.04;54.94;101563.06;691926;28;917;-66
2021/06/01 00:24:43;;;;;;;4.80;3.88;;;;;;;14.06;54.74;101569.19;690563;28;44261;-66
2021/06/01 00:25:05;;;;;;;5.22;4.05;;;;;;;14.06;54.54;101561.03;691445;28;17807;-66
2021/06/01 00:25:26;;;;;;;5.55;3.78;;;;;;;14.05;54.66;101565.59;690505;28;46468;-66
2021/06/01 00:25:48;;;;;;;4.30;3.90;;;;;;;14.06;54.66;101570.00;692063;28;1008;-66
2021/06/01 00:26:10;;;;;;;4.28;3.88;;;;;;;14.06;54.95;101564.59;692043;28;907;-66
2021/06/01 00:26:31;;;;;;;5.28;4.13;;;;;;;14.06;54.75;101570.00;689456;28;62264;-66
2021/06/01 00:26:52;;;;;;;4.50;4.10;;;;;;;14.06;55.00;101561.88;690939;28;23230;-66
2021/06/01 00:27:14;;;;;;;5.18;4.00;;;;;;;14.06;54.56;101564.59;691440;28;16262;-66
2021/06/01 00:27:35;;;;;;;4.60;3.92;;;;;;;14.04;54.48;101563.94;690150;28;12674;-66
2021/06/01 00:27:56;;;;;;;3.97;3.58;;;;;;;14.05;54.71;101559.31;689761;28;21524;-66
2021/06/01 00:28:17;;;;;;;4.80;3.60;;;;;;;14.03;54.66;101562.22;691097;28;23421;-66
2021/06/01 00:28:40;;;;;;;6.18;3.90;;;;;;;14.05;54.47;101562.03;691045;28;21543;-66
2021/06/01 00:29:01;;;;;;;4.90;4.00;;;;;;;14.05;54.54;101564.75;689232;28;69241;-66
2021/06/01 00:29:23;;;;;;;4.10;3.70;;;;;;;14.06;54.66;101559.16;690741;28;24394;-66
2021/06/01 00:29:44;;;;;;;8.00;4.00;;;;;;;14.05;54.81;101565.59;688844;28;67478;-66
2021/06/01 00:30:07;;;;;;;8.60;3.95;;;;;;;14.08;54.49;101558.97;690863;28;22406;-66
2021/06/01 00:30:28;;;;;;;6.47;3.90;;;;;;;14.10;54.68;101572.38;690743;28;47020;-66
2021/06/01 00:30:49;;;;;;;4.90;3.88;;;;;;;14.10;54.99;101564.22;691336;28;21557;-66
2021/06/01 00:31:10;;;;;;;4.45;4.00;;;;;;;14.10;54.63;101564.22;691729;28;22402;-66
2021/06/01 00:31:32;;;;;;;5.10;4.03;;;;;;;14.10;54.70;101561.50;690990;28;21522;-66
2021/06/01 00:31:53;;;;;;;5.07;4.30;;;;;;;14.10;54.79;101565.06;691614;28;9472;-66
2021/06/01 00:32:15;;;;;;;5.70;4.28;;;;;;;14.10;54.95;101565.06;691404;28;23706;-66
2021/06/01 00:32:36;;;;;;;4.88;4.05;;;;;;;14.11;54.58;101560.50;690561;28;45229;-66
2021/06/01 00:32:57;;;;;;;5.15;3.83;;;;;;;14.12;54.59;101562.16;690625;28;22402;-66
2021/06/01 00:33:19;;;;;;;5.28;3.80;;;;;;;14.12;54.96;101559.44;691495;28;24353;-66
2021/06/01 00:33:40;;;;;;;4.30;3.78;;;;;;;14.11;54.78;101563.22;690785;28;43717;-66
2021/06/01 00:34:01;;;;;;;6.53;4.05;;;;;;;14.10;54.92;101565.06;691337;28;21792;-66
2021/06/01 00:34:22;;;;;;;5.85;4.25;;;;;;;14.10;54.85;101564.22;691252;28;22482;-66
2021/06/01 00:34:44;;;;;;;4.57;4.05;;;;;;;14.09;54.61;101560.66;690591;28;21533;-66
2021/06/01 00:35:06;;;;;;;4.10;3.70;;;;;;;14.08;55.03;101563.56;690367;28;46323;-66
2021/06/01 00:35:27;;;;;;;5.30;4.18;;;;;;;14.07;54.93;101557.25;690489;28;47504;-66
2021/06/01 00:35:48;;;;;;;5.32;4.35;;;;;;;14.05;54.55;101562.88;691471;28;22401;-66
2021/06/01 00:36:09;;;;;;;5.10;4.10;;;;;;;14.04;54.67;101565.78;691025;28;23498;-66
2021/06/01 00:36:31;;;;;;;4.38;3.97;;;;;;;14.03;55.21;101564.94;691242;28;17263;-66
2021/06/01 00:36:52;;;;;;;4.88;3.75;;;;;;;14.02;55.06;101571.38;689990;28;46389;-66
2021/06/01 00:37:13;;;;;;;5.57;3.80;;;;;;;14.02;55.24;101565.13;691254;28;22418;-68
2021/06/01 00:37:34;;;;;;;4.68;4.10;;;;;;;14.02;55.34;101567.84;691272;28;24365;-66
2021/06/01 00:37:55;;;;;;;4.45;4.05;;;;;;;14.01;54.97;101567.00;691076;28;23471;-66
2021/06/01 00:38:17;;;;;;;4.72;3.95;;;;;;;14.00;55.23;101568.00;691028;28;23339;-66
2021/06/01 00:38:38;;;;;;;4.85;3.92;;;;;;;14.00;55.29;101567.19;689196;28;45319;-66
2021/06/01 00:38:59;;;;;;;4.50;3.90;;;;;;;14.00;54.93;101568.00;689960;28;21556;-66
2021/06/01 00:39:20;;;;;;;3.90;3.60;;;;;;;14.01;55.09;101568.84;689428;28;21545;-66
2021/06/01 00:39:41;;;;;;;4.20;3.67;;;;;;;13.99;55.53;101562.75;690181;28;23425;-66
2021/06/01 00:40:04;;;;;;;5.32;4.20;;;;;;;13.97;55.70;101565.66;688324;28;23286;-66
2021/06/01 00:40:25;;;;;;;4.68;4.13;;;;;;;13.98;55.55;101561.06;687400;28;45243;-66
2021/06/01 00:40:46;;;;;;;4.43;4.03;;;;;;;13.98;55.67;101567.34;688835;28;1197;-67
2021/06/01 00:41:07;;;;;;;4.40;4.00;;;;;;;13.98;55.51;101569.22;687404;28;44394;-66
2021/06/01 00:41:29;;;;;;;4.57;4.18;;;;;;;13.98;55.48;101561.06;688673;28;21531;-66
2021/06/01 00:41:50;;;;;;;5.10;4.10;;;;;;;13.98;55.29;101567.34;691844;28;898;-66
2021/06/01 00:42:12;;;;;;;4.35;3.95;;;;;;;13.98;55.24;101564.66;691881;28;1290;-66
2021/06/01 00:42:33;;;;;;;4.72;4.15;;;;;;;13.98;55.05;101566.50;691107;28;16020;-66
2021/06/01 00:42:54;;;;;;;4.00;3.60;;;;;;;13.98;55.04;101569.22;691563;28;11384;-66
2021/06/01 00:43:17;;;;;;;4.28;3.50;;;;;;;13.96;55.52;101561.25;691975;28;1268;-66
2021/06/01 00:43:38;;;;;;;4.13;3.70;;;;;;;13.96;55.13;101565.84;690163;28;20708;-66
2021/06/01 00:44:00;;;;;;;4.20;3.80;;;;;;;13.94;55.30;101566.00;690093;28;19425;-67
2021/06/01 00:44:21;;;;;;;4.70;4.00;;;;;;;13.93;55.61;101563.47;690056;28;23508;-66
2021/06/01 00:44:44;;;;;;;4.25;3.85;;;;;;;13.93;55.28;101567.03;689535;28;46390;-66
2021/06/01 00:45:06;;;;;;;4.85;4.25;;;;;;;13.93;55.60;101561.59;690447;28;44144;-66
2021/06/01 00:45:28;;;;;;;4.75;4.13;;;;;;;13.93;55.69;101558.88;690498;28;44456;-66
2021/06/01 00:45:49;;;;;;;6.05;3.80;;;;;;;13.94;55.19;101557.03;690692;28;45242;-66
2021/06/01 00:46:10;;;;;;;5.95;4.20;;;;;;;13.92;55.29;101562.63;691220;28;22495;-66
2021/06/01 00:46:32;;;;;;;5.43;4.22;;;;;;;13.94;55.23;101557.03;691915;28;2617;-66
2021/06/01 00:46:53;;;;;;;6.95;3.88;;;;;;;13.93;55.22;101558.03;690811;28;23221;-66
2021/06/01 00:47:14;;;;;;;7.10;3.75;;;;;;;13.90;55.39;101561.94;691933;28;9559;-66
2021/06/01 00:47:35;;;;;;;4.80;3.92;;;;;;;13.90;55.64;101561.13;690010;28;21314;-66
2021/06/01 00:47:56;;;;;;;4.93;4.07;;;;;;;13.88;55.49;101562.13;690238;28;9005;-66
2021/06/01 00:48:18;;;;;;;4.50;4.10;;;;;;;13.87;55.20;101559.59;691349;28;21522;-66
2021/06/01 00:48:39;;;;;;;4.30;3.70;;;;;;;13.85;55.74;101565.19;691226;28;23388;-66
2021/06/01 00:49:00;;;;;;;4.43;3.60;;;;;;;13.85;55.40;101561.66;691256;28;23860;-66
2021/06/01 00:49:21;;;;;;;4.15;3.78;;;;;;;13.84;55.37;101559.94;690895;28;21567;-66
2021/06/01 00:49:42;;;;;;;4.50;3.92;;;;;;;13.84;55.69;101562.66;691112;28;23658;-66
2021/06/01 00:50:04;;;;;;;5.07;3.87;;;;;;;13.84;55.64;101559.94;690498;28;46230;-66
2021/06/01 00:50:27;;;;;;;7.68;4.10;;;;;;;13.82;55.39;101562.88;690825;28;43728;-66
2021/06/01 00:50:49;;;;;;;4.85;3.85;;;;;;;13.84;55.37;101562.66;689689;28;69597;-66
2021/06/01 00:51:10;;;;;;;4.00;3.65;;;;;;;13.80;55.51;101561.34;690394;28;47197;-66
2021/06/01 00:51:31;;;;;;;5.60;3.72;;;;;;;13.79;55.83;101556.94;690821;28;22393;-66
2021/06/01 00:51:53;;;;;;;3.92;3.50;;;;;;;13.78;56.00;101566.97;691294;28;23498;-66
2021/06/01 00:52:14;;;;;;;4.40;3.95;;;;;;;13.78;55.92;101557.97;690476;28;44418;-66
2021/06/01 00:52:35;;;;;;;4.55;4.05;;;;;;;13.74;55.76;101556.63;691287;28;22374;-66
2021/06/01 00:52:56;;;;;;;4.28;3.88;;;;;;;13.77;55.93;101562.53;690249;28;7667;-66
2021/06/01 00:53:18;;;;;;;4.22;3.83;;;;;;;13.76;55.88;101558.16;691098;28;23576;-66
2021/06/01 00:53:39;;;;;;;4.65;4.25;;;;;;;13.77;55.83;101562.53;690620;28;45383;-66
2021/06/01 00:54:01;;;;;;;4.55;4.07;;;;;;;13.77;56.18;101561.69;691475;28;21752;-66
2021/06/01 00:54:22;;;;;;;4.35;3.70;;;;;;;13.77;55.75;101559.00;692003;28;862;-66
2021/06/01 00:54:47;;;;;;;4.57;3.85;;;;;;;13.78;55.82;101566.13;690498;28;36056;-66
2021/06/01 00:55:09;;;;;;;5.53;3.90;;;;;;;13.78;56.10;101563.41;691028;28;23536;-66
2021/06/01 00:55:30;;;;;;;5.18;3.70;;;;;;;13.79;56.10;101556.94;690612;28;45336;-66
2021/06/01 00:55:52;;;;;;;4.82;3.63;;;;;;;13.79;56.08;101559.66;691946;28;15820;-66
2021/06/01 00:56:23;;;;;;;5.57;3.95;;;;;;;13.79;56.11;101563.22;688355;28;98555;-66
2021/06/01 00:56:45;;;;;;;4.88;3.90;;;;;;;13.79;56.03;101557.81;691210;28;13993;-66
2021/06/01 00:57:06;;;;;;;4.30;3.85;;;;;;;13.77;55.97;101554.41;690556;28;1059;-66
2021/06/01 00:57:29;;;;;;;5.53;4.13;;;;;;;13.78;55.74;101557.97;690867;28;931;-66
2021/06/01 00:57:51;;;;;;;6.03;4.00;;;;;;;13.76;56.08;101555.44;691831;28;1840;-66
2021/06/01 00:58:12;;;;;;;4.63;3.70;;;;;;;13.76;56.22;101560.00;690936;28;18580;-66
2021/06/01 00:58:33;;;;;;;5.13;3.90;;;;;;;13.74;56.00;101560.19;691202;28;11987;-66
2021/06/01 00:58:55;;;;;;;4.53;3.63;;;;;;;13.72;56.02;101555.97;690988;28;22515;-66
2021/06/01 00:59:16;;;;;;;4.63;3.55;;;;;;;13.74;56.29;101557.47;691240;28;22402;-66
2021/06/01 00:59:37;;;;;;;5.82;3.83;;;;;;;13.73;55.90;101561.22;690132;28;22417;-66
2021/06/01 00:59:59;;;;;;;5.45;4.00;;;;;;;13.73;55.94;101557.66;691728;28;7045;-66
2021/06/01 01:00:39;;;;;;;4.05;3.50;;;;;;;13.70;56.17;101553.44;690232;28;43943;-66
2021/06/01 01:01:19;;;;;;;4.55;4.13;;;;;;;13.68;56.19;101559.03;687417;28;135658;-66
2021/06/01 01:01:41;;;;;;;3.90;3.50;;;;;;;13.64;56.19;101563.13;687933;28;121469;-66
2021/06/01 01:02:05;;;;;;;4.10;3.70;;;;;;;13.62;56.45;101564.31;691195;28;23433;-66
2021/06/01 01:02:26;;;;;;;4.80;3.97;;;;;;;13.60;56.57;101559.06;689383;28;76210;-66
2021/06/01 01:02:47;;;;;;;5.47;4.22;;;;;;;13.60;56.15;101566.38;689031;28;46270;-66
2021/06/01 01:03:09;;;;;;;3.92;3.60;;;;;;;13.60;56.49;101560.94;690497;28;23521;-66
2021/06/01 01:03:30;;;;;;;4.20;3.80;;;;;;;13.60;56.38;101566.38;690778;28;38542;-66
2021/06/01 01:03:53;;;;;;;4.97;3.83;;;;;;;13.60;56.74;101566.38;691927;28;4614;-66
2021/06/01 01:04:14;;;;;;;4.60;3.90;;;;;;;13.61;56.56;101568.06;690967;28;33886;-66
2021/06/01 01:04:35;;;;;;;6.10;4.10;;;;;;;13.59;56.61;101565.53;689146;28;37737;-66
2021/06/01 01:04:57;;;;;;;5.32;4.10;;;;;;;13.60;56.47;101566.38;692479;28;17492;-67
2021/06/01 01:05:19;;;;;;;4.40;4.00;;;;;;;13.59;56.44;101556.53;691448;28;23435;-67
2021/06/01 01:05:41;;;;;;;4.40;4.00;;;;;;;13.60;56.86;101555.50;690684;28;46339;-66
2021/06/01 01:06:06;;;;;;;5.45;4.45;;;;;;;13.61;56.49;101563.47;690452;28;46321;-66
2021/06/01 01:06:42;;;;;;;4.88;4.30;;;;;;;13.60;56.86;101558.22;687813;28;115090;-66
2021/06/01 01:07:15;;;;;;;4.25;3.80;;;;;;;13.60;56.63;101561.78;687468;28;132388;-66
2021/06/01 01:07:44;;;;;;;4.32;3.92;;;;;;;13.59;56.88;101567.38;687180;28;137639;-66
2021/06/01 01:08:21;;;;;;;4.32;3.85;;;;;;;13.59;56.84;101559.25;687346;28;135860;-66
2021/06/01 01:08:49;;;;;;;4.63;4.13;;;;;;;13.58;56.80;101568.41;687227;28;137411;-66
2021/06/01 01:09:12;;;;;;;4.10;3.63;;;;;;;13.56;56.94;101563.16;687559;28;137931;-66
2021/06/01 01:09:35;;;;;;;4.22;3.85;;;;;;;13.56;56.59;101570.44;688964;28;69705;-66
2021/06/01 01:09:56;;;;;;;5.00;4.40;;;;;;;13.55;56.92;101563.34;690178;28;44397;-66
2021/06/01 01:10:18;;;;;;;6.55;4.20;;;;;;;13.55;56.78;101552.50;691122;28;22382;-66
2021/06/01 01:10:40;;;;;;;5.03;3.72;;;;;;;13.53;56.72;101563.53;689195;28;45297;-66
2021/06/01 01:11:05;;;;;;;3.97;3.55;;;;;;;13.50;56.92;101562.00;689018;28;46280;-66
2021/06/01 01:11:28;;;;;;;5.10;4.00;;;;;;;13.50;57.11;101562.00;686906;28;113206;-66
2021/06/01 01:11:56;;;;;;;4.78;3.90;;;;;;;13.50;56.76;101561.16;689016;28;93604;-66
2021/06/01 01:12:22;;;;;;;4.88;4.10;;;;;;;13.50;56.69;101564.72;686895;28;133984;-66
2021/06/01 01:12:47;;;;;;;6.07;4.00;;;;;;;13.48;56.63;101558.63;687322;28;136427;-66
2021/06/01 01:13:08;;;;;;;6.65;3.83;;;;;;;13.47;56.49;101558.78;687472;28;113594;-66
2021/06/01 01:13:33;;;;;;;4.53;3.83;;;;;;;13.46;56.51;101548.94;691160;28;22377;-66
2021/06/01 01:13:57;;;;;;;5.60;4.20;;;;;;;13.44;56.66;101559.16;687840;28;115070;-66
2021/06/01 01:14:22;;;;;;;4.15;3.80;;;;;;;13.41;56.61;101560.34;688570;28;92290;-66
2021/06/01 01:14:46;;;;;;;4.75;4.22;;;;;;;13.40;56.98;101555.09;688324;28;104378;-66
2021/06/01 01:15:10;;;;;;;5.03;4.30;;;;;;;13.40;56.75;101561.38;688746;28;93030;-66
2021/06/01 01:15:33;;;;;;;5.60;4.47;;;;;;;13.39;57.01;101556.13;688850;28;93161;-66
2021/06/01 01:15:55;;;;;;;4.50;4.10;;;;;;;13.37;57.05;101556.31;689430;28;69425;-66
2021/06/01 01:16:16;;;;;;;4.47;4.07;;;;;;;13.34;57.07;101553.94;690473;28;37917;-66
2021/06/01 01:16:41;;;;;;;4.25;3.85;;;;;;;13.33;56.94;101560.38;692062;28;21407;-66
2021/06/01 01:17:04;;;;;;;4.35;3.92;;;;;;;13.32;56.94;101558.63;687686;28;115205;-66
2021/06/01 01:17:31;;;;;;;4.88;4.40;;;;;;;13.29;56.84;101559.84;692571;28;1446;-66
2021/06/01 01:17:53;;;;;;;4.65;4.10;;;;;;;13.27;57.07;101556.44;686932;28;139247;-66
2021/06/01 01:18:17;;;;;;;4.82;4.30;;;;;;;13.27;56.96;101553.72;690489;28;36417;-66
2021/06/01 01:18:39;;;;;;;4.70;4.35;;;;;;;13.29;56.96;101561.69;688884;28;93159;-66
2021/06/01 01:19:02;;;;;;;4.72;4.28;;;;;;;13.26;57.14;101554.78;690447;28;45235;-66
2021/06/01 01:19:45;;;;;;;4.45;4.05;;;;;;;13.25;57.28;101557.66;691029;28;15262;-66
2021/06/01 01:20:16;;;;;;;4.65;4.18;;;;;;;13.26;57.38;101553.91;687013;28;138653;-66
2021/06/01 01:20:40;;;;;;;7.60;4.57;;;;;;;13.27;57.04;101555.63;686605;28;137898;-66
2021/06/01 01:21:08;;;;;;;5.82;4.20;;;;;;;13.26;57.26;101553.91;689551;28;69451;-66
2021/06/01 01:21:34;;;;;;;6.97;4.40;;;;;;;13.25;57.60;101555.78;687039;28;125470;-66
2021/06/01 01:21:55;;;;;;;5.07;4.20;;;;;;;13.25;57.69;101554.94;687203;28;136571;-66
2021/06/01 01:22:17;;;;;;;5.13;4.20;;;;;;;13.25;57.41;101553.06;691166;28;22536;-66
2021/06/01 01:22:40;;;;;;;4.72;4.13;;;;;;;13.25;57.69;101552.25;691285;28;21535;-66
2021/06/01 01:23:06;;;;;;;4.57;4.03;;;;;;;13.25;57.44;101557.66;687428;28;92190;-66
2021/06/01 01:23:34;;;;;;;4.43;3.70;;;;;;;13.25;57.24;101558.50;687047;28;138125;-66
2021/06/01 01:24:08;;;;;;;5.35;4.10;;;;;;;13.27;57.55;101553.72;686916;28;137801;-66
2021/06/01 01:24:36;;;;;;;4.60;4.20;;;;;;;13.28;57.05;101554.59;685767;28;138990;-66
2021/06/01 01:25:04;;;;;;;5.85;4.20;;;;;;;13.26;57.45;101549.34;686728;28;138686;-66
2021/06/01 01:25:30;;;;;;;4.43;3.92;;;;;;;13.25;57.40;101549.53;685960;28;136271;-66
2021/06/01 01:25:58;;;;;;;4.15;3.75;;;;;;;13.23;57.28;101549.69;689417;28;100586;-66
2021/06/01 01:26:28;;;;;;;4.90;3.85;;;;;;;13.19;57.24;101551.06;686832;28;139240;-66
2021/06/01 01:26:57;;;;;;;5.38;4.22;;;;;;;13.16;57.22;101548.69;686834;28;136171;-66
2021/06/01 01:27:27;;;;;;;5.13;4.20;;;;;;;13.12;57.75;101556.34;687345;28;132639;-66
2021/06/01 01:28:09;;;;;;;4.32;3.92;;;;;;;13.07;57.87;101555.16;687215;28;136154;-66
2021/06/01 01:28:37;;;;;;;4.35;3.88;;;;;;;13.04;57.67;101547.38;685922;28;137406;-66
2021/06/01 01:29:02;;;;;;;4.32;3.92;;;;;;;13.03;58.27;101559.25;686439;28;158908;-66
2021/06/01 01:29:33;;;;;;;4.63;4.03;;;;;;;13.02;57.74;101546.72;686675;28;138026;-66
2021/06/01 01:29:56;;;;;;;5.68;4.10;;;;;;;13.01;58.00;101550.44;685878;28;137678;-66
2021/06/01 01:30:18;;;;;;;4.90;3.90;;;;;;;13.00;57.91;101549.59;688900;28;45251;-66
2021/06/01 01:30:46;;;;;;;4.50;4.10;;;;;;;13.00;58.36;101543.34;688535;28;61236;-66
2021/06/01 01:31:12;;;;;;;4.50;4.10;;;;;;;12.99;58.13;101550.59;690471;28;1149;-66
2021/06/01 01:31:38;;;;;;;4.40;3.92;;;;;;;13.01;57.95;101551.28;688563;28;98727;-66
2021/06/01 01:31:59;;;;;;;4.85;4.28;;;;;;;13.01;58.26;101545.00;687419;28;135877;-66
2021/06/01 01:32:30;;;;;;;4.82;4.32;;;;;;;13.02;57.94;101547.53;690562;28;35631;-66
2021/06/01 01:33:01;;;;;;;4.53;4.13;;;;;;;13.03;58.06;101556.53;687141;28;135992;-66
2021/06/01 01:33:24;;;;;;;4.57;4.13;;;;;;;13.03;57.80;101549.25;685952;28;136217;-66
2021/06/01 01:33:50;;;;;;;5.45;4.30;;;;;;;13.04;58.16;101542.81;691170;28;60585;-66
2021/06/01 01:34:14;;;;;;;4.97;4.28;;;;;;;13.04;58.08;101548.25;692847;28;1016;-66
2021/06/01 01:34:35;;;;;;;4.18;3.80;;;;;;;13.05;57.71;101554.50;690237;28;70565;-66
2021/06/01 01:34:59;;;;;;;5.25;4.28;;;;;;;13.06;57.68;101553.50;691930;28;16156;-66
2021/06/01 01:35:21;;;;;;;4.50;4.05;;;;;;;13.03;57.86;101551.97;689889;28;93067;-66
2021/06/01 01:35:43;;;;;;;4.33;3.93;;;;;;;13.06;57.80;101548.06;691082;28;44363;-66
2021/06/01 01:36:06;;;;;;;4.90;4.32;;;;;;;13.05;58.02;101546.34;689920;28;58532;-66
2021/06/01 01:36:29;;;;;;;4.60;4.10;;;;;;;13.06;57.80;101550.78;689407;28;69422;-66
2021/06/01 01:36:51;;;;;;;5.50;4.00;;;;;;;13.04;57.78;101548.25;689408;28;66831;-66
2021/06/01 01:37:13;;;;;;;6.10;3.70;;;;;;;13.05;58.06;101546.34;689048;28;46478;-66
2021/06/01 01:37:35;;;;;;;4.43;4.00;;;;;;;13.06;58.00;101548.06;690019;28;21557;-66
2021/06/01 01:37:58;;;;;;;4.40;4.00;;;;;;;13.07;57.86;101549.72;689110;28;69459;-66
2021/06/01 01:38:21;;;;;;;4.93;4.38;;;;;;;13.07;57.78;101550.59;688446;28;65792;-66
2021/06/01 01:38:42;;;;;;;4.80;4.15;;;;;;;13.07;58.00;101550.59;689057;28;46295;-66
2021/06/01 01:39:05;;;;;;;4.43;4.03;;;;;;;13.08;58.28;101552.28;690083;28;46215;-66
2021/06/01 01:39:27;;;;;;;4.47;3.97;;;;;;;13.09;58.20;101551.25;689912;28;46523;-66
2021/06/01 01:39:51;;;;;;;7.07;4.00;;;;;;;13.11;57.88;101559.22;689930;28;45258;-66
2021/06/01 01:40:15;;;;;;;5.05;3.97;;;;;;;13.10;57.95;101550.25;687906;28;115985;-66
2021/06/01 01:40:37;;;;;;;5.63;3.90;;;;;;;13.11;58.24;101551.94;688498;28;56030;-66
2021/06/01 01:41:00;;;;;;;5.20;4.00;;;;;;;13.12;57.75;101555.50;689611;28;70193;-66
2021/06/01 01:41:21;;;;;;;5.55;3.97;;;;;;;13.12;58.11;101553.63;689489;28;67631;-66
2021/06/01 01:41:43;;;;;;;6.28;4.00;;;;;;;13.13;58.06;101555.34;691170;28;22384;-66
2021/06/01 01:42:05;;;;;;;4.70;4.10;;;;;;;13.13;58.01;101554.47;690386;28;46497;-66
2021/06/01 01:42:27;;;;;;;5.50;4.25;;;;;;;13.14;57.73;101553.47;690263;28;46500;-66
2021/06/01 01:42:51;;;;;;;5.07;4.57;;;;;;;13.16;57.87;101554.13;690174;28;41192;-66
2021/06/01 01:43:15;;;;;;;5.18;4.25;;;;;;;13.16;57.46;101556.84;688833;28;90705;-66
2021/06/01 01:43:37;;;;;;;5.65;4.25;;;;;;;13.15;57.35;101558.72;688537;28;92299;-66
2021/06/01 01:44:00;;;;;;;5.35;4.53;;;;;;;13.15;57.25;101550.56;690193;28;46058;-66
2021/06/01 01:44:22;;;;;;;6.43;4.55;;;;;;;13.17;57.55;101550.41;690230;28;46477;-66
2021/06/01 01:44:49;;;;;;;6.05;4.47;;;;;;;13.19;57.35;101555.66;689125;28;56777;-66
2021/06/01 01:45:13;;;;;;;4.45;4.05;;;;;;;13.17;57.14;101553.09;687217;28;132826;-66
2021/06/01 01:45:36;;;;;;;4.85;4.30;;;;;;;13.17;56.95;101550.41;688967;28;90718;-66
2021/06/01 01:46:05;;;;;;;5.07;4.18;;;;;;;13.14;57.11;101550.75;690226;28;45289;-66
2021/06/01 01:46:34;;;;;;;6.10;4.07;;;;;;;13.15;57.14;101557.88;690061;28;59763;-66
2021/06/01 01:47:04;;;;;;;5.47;4.00;;;;;;;13.13;57.16;101552.63;689328;28;60778;-66
2021/06/01 01:48:59;;;;;;;5.20;4.00;;;;;;;13.11;57.22;101548.38;687023;28;138406;-66
2021/06/01 01:49:22;;;;;;;5.00;4.13;;;;;;;13.14;57.50;101556.16;687194;28;123407;-66
2021/06/01 01:49:43;;;;;;;5.40;3.97;;;;;;;13.14;57.13;101548.03;689069;28;67504;-66
2021/06/01 01:50:07;;;;;;;5.45;4.32;;;;;;;13.13;57.18;101549.03;691514;28;14728;-66